Airfield :
LOGIN :

Register | Disclaimer

   EN    FR    IT 

 










Legend :    VFR   Marginal VFR   IFR   Intensive IFR   Very Intensive IFR
Visi :
Ceiling :
>= 8 km
>= 3000ft
5 to 8 km
1000 to 3000 ft
1500m to 5 km
500 to 1000 ft
800 to 1500m
200 to 500 ft
< 800m
< 200 ft
Symbols :   Thunderstorms  Fog  Heavy snow  Heavy precipitations  Wind > 20 kt
SIGMETs :     Misc.  Thunderstorms  Icing  Turbulence  Mountain Waves  Volcanic Ashes






- Airport Elevation : 297 ft
- IATA code : ODB


LEBA - Córdoba

CURRENT METAR :
  • 190600Z 27004KT 9999 BKN017 16/13 Q1016

EXPIRED METARs :
  • 190530Z AUTO 27005KT 240V300 9999 OVC018 16/13 Q1016
  • 190500Z AUTO 26004KT 240V300 9999 OVC019 16/13 Q1016
  • 190430Z AUTO 21002KT 9999 OVC021 16/14 Q1015
  • 190400Z AUTO VRB01KT 9999 BKN021 16/13 Q1015
  • 190330Z AUTO 22004KT 9999 FEW024 15/13 Q1015
  • 190300Z AUTO 22004KT CAVOK 15/12 Q1016
  • 190230Z AUTO 24004KT 200V280 CAVOK 15/13 Q1016
  • 190200Z AUTO VRB02KT CAVOK 16/13 Q1016
  • 190130Z AUTO 23005KT CAVOK 16/13 Q1016

TAF TAF LEBA
Valid from the 19 at 03:00 until the 20 at 03:00 UTC


190200Z 1903/2003 VRB03KT 9999 SCT020 TX24/1915Z TN14/1905Z
BECMG 1911/1913 25020KT
PROB30
TEMPO 1912/1918 4000 SHRA FEW030CB
PROB30
TEMPO 1912/1918 3000 TSRA SCT025CB
BECMG 1920/1922 VRB03KT



MET'MAP, your aeronautical weather chart ! - Copyright ORBIFLY December 2007 - Disclaimer

ORBIFLY MET'MAP TEAM :

Programming & Development : Alexandra Zaïnal
Original concept : Baudouin d'Aumeries
Technical & hardware support : Manuel Goepfert
Assistance : Marc-Olivier Méhu




SOURCES & CREDITS :

   NOAA